Time;durP1;ratioP1;P1;durP2;ratioP2;P2;SDS_P1;SDS_P2;PMS_P1;PMS_P2;Temp;Humidity;BMP_temperature;BMP_pressure;BME280_temperature;BME280_humidity;BME280_pressure;Samples;Min_cycle;Max_cycle;Signal;HPM_P1;HPM_P2
2021/06/10 00:00:52;;;;;;;14.55;11.45;;;;;;;14.71;100.00;99253.16;4974946;28;20081;-70
2021/06/10 00:03:17;;;;;;;15.52;11.77;;;;;;;14.63;100.00;99255.06;4973994;28;20385;-69
2021/06/10 00:05:45;;;;;;;17.60;12.57;;;;;;;14.54;100.00;99253.69;4974104;28;20026;-70
2021/06/10 00:08:11;;;;;;;15.93;12.05;;;;;;;14.58;100.00;99251.34;4975012;28;20035;-70
2021/06/10 00:10:40;;;;;;;16.65;12.00;;;;;;;14.46;100.00;99242.97;4971478;28;20408;-70
2021/06/10 00:13:05;;;;;;;21.73;13.25;;;;;;;14.45;100.00;99249.50;4973243;28;20026;-70
2021/06/10 00:15:33;;;;;;;24.48;15.07;;;;;;;14.43;100.00;99251.59;4974705;28;20393;-70
2021/06/10 00:18:00;;;;;;;18.17;13.13;;;;;;;14.43;100.00;99248.88;4974355;28;20097;-71
2021/06/10 00:20:29;;;;;;;19.63;13.45;;;;;;;14.41;100.00;99246.38;4974550;28;20366;-70
2021/06/10 00:22:55;;;;;;;22.50;13.75;;;;;;;14.36;100.00;99251.63;4973258;28;20034;-69
2021/06/10 00:25:22;;;;;;;21.48;15.27;;;;;;;14.36;100.00;99261.69;4955558;28;20040;-70
2021/06/10 00:27:47;;;;;;;21.77;13.75;;;;;;;14.32;100.00;99233.22;4971472;28;20042;-70
2021/06/10 00:30:17;;;;;;;27.48;14.65;;;;;;;14.36;100.00;99231.75;4973998;28;20030;-69
2021/06/10 00:32:43;;;;;;;27.02;14.45;;;;;;;14.41;100.00;99261.88;4972748;28;20034;-70
2021/06/10 00:35:09;;;;;;;22.48;15.07;;;;;;;14.32;100.00;99252.28;4974004;28;20030;-68
2021/06/10 00:37:34;;;;;;;21.90;14.88;;;;;;;14.35;100.00;99249.13;4972389;28;20073;-69
2021/06/10 00:40:00;;;;;;;20.27;15.35;;;;;;;14.38;100.00;99246.81;4973211;28;20145;-70
2021/06/10 00:42:25;;;;;;;27.85;17.67;;;;;;;14.28;100.00;99237.44;4973745;28;20041;-69
2021/06/10 00:44:50;;;;;;;26.30;16.67;;;;;;;14.28;100.00;99251.03;4973932;28;20384;-68
2021/06/10 00:47:16;;;;;;;27.25;16.10;;;;;;;14.14;100.00;99239.38;4974265;28;20033;-70
2021/06/10 00:49:43;;;;;;;23.15;15.35;;;;;;;14.12;100.00;99241.47;4973128;28;20046;-69
2021/06/10 00:52:08;;;;;;;25.02;14.82;;;;;;;14.01;100.00;99238.38;4973486;28;20081;-70
2021/06/10 00:54:34;;;;;;;18.05;12.73;;;;;;;13.90;100.00;99247.22;4971825;28;20023;-69
2021/06/10 00:56:59;;;;;;;20.02;13.65;;;;;;;13.82;100.00;99242.00;4985006;28;20105;-70
2021/06/10 00:59:25;;;;;;;18.83;13.57;;;;;;;13.95;100.00;99260.19;4973261;28;20093;-69
2021/06/10 01:01:50;;;;;;;24.02;13.18;;;;;;;13.93;100.00;99259.53;4974536;28;20476;-70
2021/06/10 01:04:16;;;;;;;22.52;13.63;;;;;;;13.73;100.00;99230.53;4973380;28;20030;-70
2021/06/10 01:07:21;;;;;;;18.85;12.13;;;;;;;13.90;100.00;99252.66;4972028;28;20496;-69
2021/06/10 01:10:45;;;;;;;16.83;12.27;;;;;;;13.79;100.00;99267.75;4970606;28;20354;-70
2021/06/10 01:13:20;;;;;;;15.77;12.23;;;;;;;13.58;100.00;99238.09;4957696;28;20384;-69
2021/06/10 01:15:48;;;;;;;15.30;11.40;;;;;;;13.67;100.00;99261.28;4972013;28;20030;-69
2021/06/10 01:18:16;;;;;;;15.15;11.70;;;;;;;13.65;100.00;99247.09;4973654;28;20029;-68
2021/06/10 01:20:43;;;;;;;18.50;12.93;;;;;;;13.84;100.00;99252.69;4973434;28;20026;-68
2021/06/10 01:23:29;;;;;;;24.67;13.98;;;;;;;13.87;100.00;99252.25;4973008;28;20050;-72
2021/06/10 01:26:03;;;;;;;19.30;13.77;;;;;;;13.80;100.00;99250.38;4968682;28;20089;-69
2021/06/10 01:28:34;;;;;;;23.05;13.82;;;;;;;13.72;100.00;99256.03;4969278;28;20482;-69
2021/06/10 01:31:06;;;;;;;21.42;12.93;;;;;;;13.56;100.00;99246.44;4967199;28;20448;-69
2021/06/10 01:33:37;;;;;;;17.08;13.30;;;;;;;13.68;100.00;99253.97;4972014;28;20521;-70
2021/06/10 01:36:25;;;;;;;19.40;13.30;;;;;;;13.67;100.00;99255.00;4972894;28;20039;-69
2021/06/10 01:38:53;;;;;;;17.10;12.25;;;;;;;13.62;100.00;99257.53;4971854;28;20085;-69
2021/06/10 01:41:20;;;;;;;16.90;11.77;;;;;;;13.56;100.00;99251.06;4973048;28;20058;-68
2021/06/10 01:43:46;;;;;;;14.20;10.45;;;;;;;13.49;100.00;99247.50;4973010;28;20031;-68
2021/06/10 01:46:13;;;;;;;13.70;9.40;;;;;;;13.41;100.00;99242.28;4973071;28;20029;-69
2021/06/10 01:48:45;;;;;;;11.35;9.32;;;;;;;13.42;100.00;99243.97;4973518;28;20101;-69
2021/06/10 01:51:21;;;;;;;15.27;10.85;;;;;;;13.45;100.00;99241.66;4973151;28;20117;-69
2021/06/10 01:53:48;;;;;;;11.20;9.85;;;;;;;13.30;100.00;99232.91;4956094;28;20035;-69
2021/06/10 01:56:15;;;;;;;17.27;10.18;;;;;;;13.19;100.00;99234.34;4973132;28;20436;-69
2021/06/10 01:58:42;;;;;;;43.42;11.68;;;;;;;13.08;100.00;99232.25;4973690;28;20770;-70
2021/06/10 02:01:09;;;;;;;15.15;10.43;;;;;;;13.05;100.00;99241.66;4972713;28;20031;-70
2021/06/10 02:03:34;;;;;;;11.98;9.25;;;;;;;12.94;100.00;99218.69;4972362;28;20058;-70
2021/06/10 02:06:01;;;;;;;11.73;9.85;;;;;;;13.09;100.00;99229.31;4972887;28;20050;-69
2021/06/10 02:08:28;;;;;;;12.15;9.57;;;;;;;13.06;100.00;99224.31;4971708;28;20031;-70
2021/06/10 02:10:56;;;;;;;10.98;9.55;;;;;;;13.06;100.00;99224.31;4972810;28;20022;-70
2021/06/10 02:13:24;;;;;;;15.02;10.88;;;;;;;13.04;100.00;99229.09;4971868;28;20523;-70
2021/06/10 02:15:52;;;;;;;11.05;9.20;;;;;;;12.92;100.00;99203.63;4972478;28;20039;-70
2021/06/10 02:18:18;;;;;;;15.82;11.35;;;;;;;13.05;100.00;99224.53;4972636;28;20031;-70
2021/06/10 02:20:43;;;;;;;13.88;10.70;;;;;;;13.08;100.00;99218.69;4971842;28;20030;-70
2021/06/10 02:23:09;;;;;;;14.45;10.52;;;;;;;13.04;100.00;99209.25;4971969;28;20037;-70
2021/06/10 02:25:35;;;;;;;13.25;10.05;;;;;;;12.97;100.00;99197.56;4970912;28;20081;-70
2021/06/10 02:28:01;;;;;;;19.10;11.07;;;;;;;12.97;100.00;99200.28;4972285;28;20504;-70
2021/06/10 02:30:28;;;;;;;18.23;11.70;;;;;;;12.99;100.00;99207.16;4972242;28;20515;-70
2021/06/10 02:32:53;;;;;;;16.73;10.50;;;;;;;13.08;100.00;99221.41;4972237;28;20150;-70
2021/06/10 02:35:19;;;;;;;12.50;9.90;;;;;;;13.02;100.00;99223.06;4972636;28;20110;-70
2021/06/10 02:37:47;;;;;;;11.77;10.05;;;;;;;13.03;100.00;99218.47;4972109;28;20035;-70
2021/06/10 02:40:18;;;;;;;15.30;10.57;;;;;;;13.00;100.00;99221.59;4969252;28;20054;-69
2021/06/10 02:42:44;;;;;;;12.35;10.23;;;;;;;13.01;100.00;99226.81;4971464;28;20034;-70
2021/06/10 02:45:11;;;;;;;13.25;10.50;;;;;;;13.02;100.00;99219.50;4972880;28;20031;-70
2021/06/10 02:47:37;;;;;;;12.02;9.82;;;;;;;12.97;100.00;99219.28;4972473;28;20027;-70
2021/06/10 02:50:09;;;;;;;11.63;10.32;;;;;;;12.79;100.00;99207.19;4967266;28;20477;-70
2021/06/10 02:52:40;;;;;;;14.85;11.98;;;;;;;12.96;100.00;99233.91;4972452;28;20504;-69
2021/06/10 02:55:06;;;;;;;11.63;10.05;;;;;;;12.90;100.00;99225.56;4965930;28;20489;-69
2021/06/10 02:57:32;;;;;;;11.80;10.15;;;;;;;12.85;100.00;99225.34;4972109;28;20038;-69
2021/06/10 02:59:58;;;;;;;12.40;9.90;;;;;;;12.78;100.00;99210.09;4971885;28;20481;-69
2021/06/10 03:02:24;;;;;;;11.88;9.68;;;;;;;12.85;100.00;99222.63;4971791;28;20034;-70
2021/06/10 03:04:50;;;;;;;14.10;10.80;;;;;;;12.84;100.00;99218.25;4973636;28;20027;-70
2021/06/10 03:07:20;;;;;;;13.07;10.02;;;;;;;12.66;100.00;99183.56;4975367;28;20041;-70
2021/06/10 03:09:46;;;;;;;13.90;11.23;;;;;;;12.89;100.00;99218.47;4975789;28;20033;-69
2021/06/10 03:12:16;;;;;;;26.67;12.65;;;;;;;12.89;100.00;99215.75;4974379;28;20397;-70
2021/06/10 03:14:42;;;;;;;26.50;12.13;;;;;;;12.89;100.00;99220.31;4973509;28;20050;-70
2021/06/10 03:17:15;;;;;;;20.80;12.43;;;;;;;12.86;100.00;99218.88;4975778;28;20098;-70
2021/06/10 03:19:40;;;;;;;22.00;11.35;;;;;;;12.85;100.00;99219.09;4976030;28;20485;-70
2021/06/10 03:22:07;;;;;;;18.42;10.73;;;;;;;12.69;100.00;99207.56;4975505;28;20041;-70
2021/06/10 03:24:33;;;;;;;13.05;10.02;;;;;;;12.68;100.00;99219.50;4972460;28;20033;-70
2021/06/10 03:26:59;;;;;;;13.80;10.85;;;;;;;12.69;100.00;99214.91;4974691;28;20037;-69
2021/06/10 03:29:25;;;;;;;14.73;10.13;;;;;;;12.82;100.00;99223.06;4975108;28;20034;-69
2021/06/10 03:31:50;;;;;;;13.00;9.88;;;;;;;12.83;100.00;99219.28;4975655;28;20062;-70
2021/06/10 03:34:18;;;;;;;12.38;9.40;;;;;;;12.81;100.00;99215.97;4974545;28;20105;-69
2021/06/10 03:36:44;;;;;;;12.30;10.45;;;;;;;12.84;100.00;99231.84;4974958;28;20073;-70
2021/06/10 03:39:11;;;;;;;14.45;10.70;;;;;;;12.75;100.00;99226.81;4974868;28;20038;-70
2021/06/10 03:41:38;;;;;;;18.98;10.15;;;;;;;12.60;100.00;99207.97;4973593;28;20019;-70
2021/06/10 03:44:04;;;;;;;16.00;10.20;;;;;;;12.73;100.00;99221.56;4974555;28;20023;-70
2021/06/10 03:46:29;;;;;;;12.32;10.10;;;;;;;12.76;100.00;99229.31;4973848;28;20030;-70
2021/06/10 03:48:55;;;;;;;15.43;10.55;;;;;;;12.61;100.00;99213.22;4974459;28;20101;-70
2021/06/10 03:51:21;;;;;;;11.75;9.20;;;;;;;12.77;100.00;99228.25;4975101;28;20046;-70
2021/06/10 03:53:47;;;;;;;14.95;10.50;;;;;;;12.79;100.00;99234.34;4974748;28;20118;-69
2021/06/10 03:56:13;;;;;;;10.73;8.95;;;;;;;12.81;100.00;99232.25;4973859;28;20089;-69
2021/06/10 03:58:39;;;;;;;10.10;8.68;;;;;;;12.85;100.00;99240.81;4973013;28;20027;-67
2021/06/10 04:01:04;;;;;;;9.32;8.40;;;;;;;12.91;100.00;99238.09;4973127;28;20034;-71
2021/06/10 04:03:30;;;;;;;10.55;8.60;;;;;;;12.90;100.00;99214.69;4974144;28;20039;-71
2021/06/10 04:05:56;;;;;;;8.88;7.85;;;;;;;12.89;100.00;99207.59;4972285;28;20027;-73
2021/06/10 04:08:21;;;;;;;9.10;8.20;;;;;;;13.09;100.00;99228.50;4973501;28;20026;-71
2021/06/10 04:10:47;;;;;;;9.68;7.80;;;;;;;13.09;100.00;99212.19;4969440;28;20033;-70
2021/06/10 04:13:12;;;;;;;8.23;7.43;;;;;;;13.27;100.00;99231.44;4973608;28;20038;-72
2021/06/10 04:15:37;;;;;;;9.20;8.30;;;;;;;13.26;100.00;99235.22;4975895;28;20082;-66
2021/06/10 04:18:03;;;;;;;8.45;7.55;;;;;;;13.26;100.00;99224.34;4972562;28;20030;-73
2021/06/10 04:20:28;;;;;;;9.23;8.18;;;;;;;13.37;100.00;99210.09;4971773;28;20097;-74
2021/06/10 04:22:54;;;;;;;8.85;7.60;;;;;;;13.50;100.00;99211.13;4969369;28;20027;-74
2021/06/10 04:25:20;;;;;;;10.80;7.78;;;;;;;13.64;100.00;99237.22;4972269;28;20114;-72
2021/06/10 04:27:46;;;;;;;11.93;9.10;;;;;;;13.82;100.00;99233.84;4973728;28;20089;-72
2021/06/10 04:30:13;;;;;;;13.35;8.70;;;;;;;13.96;99.20;99231.91;4974364;28;20027;-70
2021/06/10 04:32:40;;;;;;;10.23;8.52;;;;;;;13.96;96.68;99221.03;4973456;28;20081;-70
2021/06/10 04:35:06;;;;;;;10.30;8.43;;;;;;;14.07;96.51;99228.53;4974361;28;20019;-66
2021/06/10 04:37:32;;;;;;;10.25;8.30;;;;;;;14.14;95.98;99232.03;4972541;28;20528;-69
2021/06/10 04:39:58;;;;;;;11.60;9.55;;;;;;;14.27;95.23;99233.03;4970887;28;20035;-71
2021/06/10 04:42:23;;;;;;;12.35;8.38;;;;;;;14.23;94.72;99219.88;4973410;28;20038;-74
2021/06/10 04:44:49;;;;;;;11.07;7.68;;;;;;;14.28;94.28;99215.66;4967553;28;20089;-73
2021/06/10 04:47:15;;;;;;;10.32;7.38;;;;;;;14.32;93.29;99216.91;4972908;28;20027;-74
2021/06/10 04:49:40;;;;;;;9.85;7.60;;;;;;;14.58;93.65;99222.22;4973932;28;20026;-72
2021/06/10 04:52:06;;;;;;;9.35;7.22;;;;;;;14.74;92.55;99231.75;4973589;28;20026;-70
2021/06/10 04:54:34;;;;;;;9.88;6.97;;;;;;;14.86;91.53;99237.34;4973237;28;20081;-70
2021/06/10 04:57:00;;;;;;;9.23;7.25;;;;;;;14.95;92.03;99222.38;4973488;28;20018;-71
2021/06/10 04:59:26;;;;;;;7.90;6.57;;;;;;;15.18;92.25;99226.41;4973993;28;20369;-72
2021/06/10 05:01:51;;;;;;;8.40;6.55;;;;;;;15.21;90.17;99225.94;4973262;28;20031;-68
2021/06/10 05:04:16;;;;;;;9.50;7.35;;;;;;;15.26;89.60;99226.13;4965329;28;20032;-71
2021/06/10 05:06:42;;;;;;;10.23;6.65;;;;;;;15.37;89.69;99236.28;4966059;28;20031;-72
2021/06/10 05:09:07;;;;;;;7.20;6.05;;;;;;;15.48;89.27;99226.53;4971765;28;20031;-73
2021/06/10 05:11:32;;;;;;;9.27;6.88;;;;;;;15.62;88.59;99227.25;4972659;28;20090;-73
2021/06/10 05:13:58;;;;;;;7.85;6.20;;;;;;;15.86;87.10;99233.72;4972745;28;20057;-71
2021/06/10 05:16:28;;;;;;;11.35;6.25;;;;;;;15.84;86.22;99214.84;4973080;28;20543;-73
2021/06/10 05:18:54;;;;;;;9.80;5.68;;;;;;;16.06;85.30;99236.22;4974034;28;20292;-71
2021/06/10 05:21:19;;;;;;;9.32;6.13;;;;;;;15.99;85.42;99212.56;4972743;28;20544;-74
2021/06/10 05:23:44;;;;;;;11.40;6.60;;;;;;;16.12;84.71;99221.66;4972421;28;20034;-69
2021/06/10 05:26:10;;;;;;;7.45;5.80;;;;;;;16.41;84.54;99237.22;4971870;28;20031;-70
2021/06/10 05:28:35;;;;;;;8.35;5.97;;;;;;;16.27;83.73;99211.19;4973094;28;20102;-70
2021/06/10 05:31:06;;;;;;;11.30;6.53;;;;;;;16.56;84.46;99236.84;4972707;28;20045;-73
2021/06/10 05:33:32;;;;;;;6.82;6.10;;;;;;;16.53;83.69;99207.25;4971025;28;20054;-76
2021/06/10 05:35:57;;;;;;;8.25;5.95;;;;;;;16.86;82.10;99217.69;4970150;28;20022;-73
2021/06/10 05:38:22;;;;;;;6.75;5.78;;;;;;;17.18;82.51;99224.75;4972765;28;20054;-75
2021/06/10 05:40:48;;;;;;;8.30;5.78;;;;;;;17.47;80.69;99225.72;4972945;28;20031;-67
2021/06/10 05:43:13;;;;;;;7.93;5.85;;;;;;;17.73;79.90;99222.50;4970364;28;20507;-69
2021/06/10 05:45:38;;;;;;;9.05;6.50;;;;;;;17.83;78.55;99215.63;4970495;28;20047;-69
2021/06/10 05:48:05;;;;;;;9.35;6.95;;;;;;;17.87;78.79;99236.81;4971848;28;20092;-70
2021/06/10 05:50:30;;;;;;;7.68;6.32;;;;;;;18.11;78.44;99223.06;4966646;28;20031;-74
2021/06/10 05:52:55;;;;;;;9.30;7.25;;;;;;;17.64;80.21;99231.31;4963288;28;20035;-74
2021/06/10 05:55:21;;;;;;;9.10;7.40;;;;;;;18.13;79.05;99238.19;4982426;28;20048;-68
2021/06/10 05:57:46;;;;;;;11.98;8.07;;;;;;;18.01;79.19;99231.06;4972337;28;20034;-72
2021/06/10 06:00:12;;;;;;;11.80;9.07;;;;;;;18.67;77.28;99248.81;4972449;28;20057;-75
2021/06/10 06:02:37;;;;;;;11.38;9.52;;;;;;;18.85;76.72;99236.84;4972152;28;20414;-75
2021/06/10 06:05:03;;;;;;;11.30;9.18;;;;;;;18.52;76.51;99224.72;4973327;28;20030;-71
2021/06/10 06:07:28;;;;;;;12.05;9.25;;;;;;;18.81;75.75;99233.78;4970360;28;20504;-70
2021/06/10 06:09:54;;;;;;;12.93;10.10;;;;;;;18.93;75.11;99232.88;4970516;28;20106;-70
2021/06/10 06:12:22;;;;;;;15.77;9.88;;;;;;;18.98;75.39;99244.75;4971381;28;20097;-68
2021/06/10 06:14:47;;;;;;;11.05;9.32;;;;;;;19.21;74.66;99232.81;4969513;28;20027;-68
2021/06/10 06:17:13;;;;;;;11.77;9.32;;;;;;;19.52;74.01;99243.44;4971992;28;20370;-67
2021/06/10 06:19:38;;;;;;;12.18;9.02;;;;;;;19.74;72.36;99241.59;4971464;28;20109;-67
2021/06/10 06:22:06;;;;;;;12.82;8.93;;;;;;;20.05;72.65;99248.34;4970549;28;20397;-64
2021/06/10 06:24:32;;;;;;;10.15;8.75;;;;;;;20.09;71.14;99229.44;4969305;28;20033;-66
2021/06/10 06:26:59;;;;;;;11.40;8.45;;;;;;;20.17;71.62;99245.47;4975239;28;20035;-63
2021/06/10 06:29:25;;;;;;;11.52;8.50;;;;;;;20.53;69.89;99232.16;4963054;28;20560;-65
2021/06/10 06:31:50;;;;;;;12.48;8.15;;;;;;;20.98;69.12;99242.00;4962404;28;20031;-66
2021/06/10 06:34:16;;;;;;;12.68;8.93;;;;;;;21.14;68.16;99243.81;4961922;28;20031;-63
2021/06/10 06:36:42;;;;;;;12.88;8.48;;;;;;;21.40;68.22;99244.03;4967354;28;20065;-66
2021/06/10 06:39:07;;;;;;;12.02;7.90;;;;;;;21.55;68.29;99244.16;4975804;28;20023;-65
2021/06/10 06:41:35;;;;;;;11.18;7.50;;;;;;;22.23;66.55;99249.81;4973336;28;20031;-68
2021/06/10 06:44:00;;;;;;;10.00;8.65;;;;;;;22.48;65.93;99249.09;4974814;28;20026;-65
2021/06/10 06:46:26;;;;;;;12.93;8.05;;;;;;;22.82;64.30;99256.91;4976755;28;20022;-76
2021/06/10 06:48:51;;;;;;;10.35;7.55;;;;;;;23.63;60.75;99239.56;4974649;28;20399;-71
2021/06/10 06:51:16;;;;;;;8.85;7.55;;;;;;;24.05;58.57;99254.97;4975347;28;20097;-71
2021/06/10 06:53:42;;;;;;;9.32;7.45;;;;;;;24.04;59.23;99242.25;4975085;28;20564;-71
2021/06/10 06:56:07;;;;;;;10.52;7.43;;;;;;;24.26;58.31;99257.66;4975042;28;20493;-69
2021/06/10 06:58:32;;;;;;;10.48;7.80;;;;;;;24.54;57.66;99252.59;4975462;28;20031;-70
2021/06/10 07:00:58;;;;;;;11.48;6.95;;;;;;;25.56;55.02;99255.47;4975650;28;20113;-69
2021/06/10 07:03:23;;;;;;;7.80;6.72;;;;;;;26.07;53.75;99242.25;4973582;28;20061;-68
2021/06/10 07:05:49;;;;;;;8.75;6.45;;;;;;;26.91;52.37;99247.28;4973854;28;20421;-67
2021/06/10 07:08:15;;;;;;;9.90;7.55;;;;;;;26.13;53.21;99249.41;4969459;28;20031;-68
2021/06/10 07:10:41;;;;;;;8.55;7.05;;;;;;;26.17;52.26;99245.75;4966310;28;20023;-68
2021/06/10 07:13:06;;;;;;;8.30;6.78;;;;;;;25.91;54.20;99249.91;4975134;28;20647;-68
2021/06/10 07:15:32;;;;;;;8.23;7.18;;;;;;;25.82;55.39;99244.16;4974678;28;20035;-68
2021/06/10 07:17:57;;;;;;;9.88;7.05;;;;;;;26.63;51.86;99244.34;4962988;28;20074;-68
2021/06/10 07:20:23;;;;;;;10.38;7.07;;;;;;;25.73;53.87;99240.38;4974777;28;20440;-68
2021/06/10 07:22:48;;;;;;;8.32;7.00;;;;;;;25.11;54.40;99249.19;4973255;28;20027;-68
2021/06/10 07:25:14;;;;;;;7.10;6.40;;;;;;;24.98;54.71;99255.38;4967967;28;20126;-73
2021/06/10 07:27:40;;;;;;;8.93;6.13;;;;;;;26.67;51.08;99250.94;4971425;28;20450;-69
2021/06/10 07:30:07;;;;;;;11.95;6.25;;;;;;;27.93;48.66;99251.19;4975468;28;20031;-67
2021/06/10 07:32:33;;;;;;;7.65;6.03;;;;;;;28.07;48.20;99252.00;4974874;28;20026;-65
2021/06/10 07:34:59;;;;;;;6.68;5.97;;;;;;;26.66;51.31;99249.31;4975263;28;20448;-68
2021/06/10 07:37:25;;;;;;;8.10;6.53;;;;;;;26.60;52.21;99264.38;4973804;28;20081;-71
2021/06/10 07:39:51;;;;;;;7.50;6.15;;;;;;;26.33;52.71;99263.03;4974606;28;20030;-68
2021/06/10 07:42:16;;;;;;;7.55;6.75;;;;;;;27.48;49.02;99245.28;4975417;28;20539;-68
2021/06/10 07:44:41;;;;;;;9.68;6.25;;;;;;;29.42;45.69;99255.19;4973586;28;20058;-68
2021/06/10 07:47:07;;;;;;;9.75;6.63;;;;;;;30.42;42.63;99259.50;4979630;28;20030;-62
2021/06/10 07:49:33;;;;;;;9.63;6.90;;;;;;;30.10;43.10;99252.28;4983273;28;20025;-64
2021/06/10 07:51:59;;;;;;;8.55;6.72;;;;;;;30.45;42.68;99250.47;4974706;28;20030;-65
2021/06/10 07:54:25;;;;;;;7.60;6.55;;;;;;;29.27;43.13;99250.00;4974061;28;20033;-64
2021/06/10 07:56:50;;;;;;;7.10;5.90;;;;;;;29.40;44.10;99260.25;4974091;28;20034;-64
2021/06/10 07:59:18;;;;;;;8.65;7.05;;;;;;;30.35;42.33;99256.34;4973704;28;20033;-66
2021/06/10 08:01:43;;;;;;;7.90;6.60;;;;;;;32.15;39.57;99242.97;4967403;28;20077;-64
2021/06/10 08:04:08;;;;;;;11.73;7.70;;;;;;;32.31;38.34;99247.69;4972497;28;20031;-63
2021/06/10 08:06:34;;;;;;;10.65;7.57;;;;;;;32.46;37.74;99246.28;4974284;28;20034;-65
2021/06/10 08:08:59;;;;;;;7.00;6.28;;;;;;;32.97;38.26;99252.72;4973490;28;20023;-65
2021/06/10 08:11:24;;;;;;;8.05;6.80;;;;;;;33.42;37.54;99256.81;4974519;28;20078;-63
2021/06/10 08:13:51;;;;;;;14.07;8.30;;;;;;;32.98;37.45;99256.31;4974504;28;20513;-64
2021/06/10 08:16:16;;;;;;;9.77;8.77;;;;;;;32.03;38.27;99247.31;4973593;28;20022;-63
2021/06/10 08:18:41;;;;;;;9.85;8.50;;;;;;;32.88;37.30;99254.78;4972255;28;20033;-62
2021/06/10 08:21:08;;;;;;;10.77;7.72;;;;;;;33.04;37.51;99256.97;4990709;28;20468;-63
2021/06/10 08:23:33;;;;;;;10.60;8.38;;;;;;;33.43;37.34;99240.78;4977655;28;20073;-64
2021/06/10 08:26:00;;;;;;;8.93;7.70;;;;;;;34.05;35.38;99251.03;4974655;28;20066;-66
2021/06/10 08:28:27;;;;;;;10.18;8.48;;;;;;;33.91;35.95;99242.94;4973992;28;20029;-65
2021/06/10 08:30:53;;;;;;;10.15;8.20;;;;;;;34.64;36.29;99253.44;4973012;28;20023;-65
2021/06/10 08:33:18;;;;;;;11.20;7.63;;;;;;;34.56;35.69;99243.09;4973940;28;20132;-65
2021/06/10 08:35:44;;;;;;;8.55;7.50;;;;;;;34.53;35.49;99238.16;4973182;28;20031;-65
2021/06/10 08:38:09;;;;;;;8.18;7.38;;;;;;;33.79;37.00;99240.09;4973706;28;20026;-65
2021/06/10 08:40:37;;;;;;;10.20;7.70;;;;;;;32.92;37.97;99241.69;4973127;28;20042;-65
2021/06/10 08:43:04;;;;;;;8.88;7.78;;;;;;;31.72;39.47;99246.72;4973362;28;20029;-66
2021/06/10 08:45:31;;;;;;;8.30;7.40;;;;;;;31.21;41.37;99247.28;4973346;28;20511;-68
2021/06/10 08:48:00;;;;;;;15.30;9.43;;;;;;;30.94;41.28;99237.28;4972769;28;20454;-64
2021/06/10 08:50:27;;;;;;;8.93;7.57;;;;;;;32.72;37.91;99232.16;4963512;28;20039;-67
2021/06/10 08:52:55;;;;;;;13.48;8.55;;;;;;;33.23;36.98;99237.69;4957581;28;20397;-64
2021/06/10 08:55:20;;;;;;;8.38;7.53;;;;;;;33.76;37.44;99238.00;4974016;28;20076;-64
2021/06/10 08:57:46;;;;;;;8.20;6.60;;;;;;;35.34;34.95;99227.84;4973304;28;20031;-64
2021/06/10 09:00:13;;;;;;;8.57;6.88;;;;;;;36.09;34.90;99231.06;4972212;28;20023;-64
2021/06/10 09:02:39;;;;;;;8.50;7.30;;;;;;;36.03;34.65;99229.69;4973345;28;20088;-65
2021/06/10 09:05:11;;;;;;;8.65;7.28;;;;;;;36.38;34.15;99227.75;4972433;28;20478;-64
2021/06/10 09:07:39;;;;;;;6.55;5.43;;;;;;;36.51;33.69;99228.44;4972126;28;20110;-65
2021/06/10 09:10:08;;;;;;;8.30;7.50;;;;;;;36.18;33.13;99231.69;4973632;28;20113;-65
2021/06/10 09:12:52;;;;;;;;;;;;;;;36.43;31.91;99235.91;4973788;28;20481;-65
2021/06/10 09:15:19;;;;;;;9.20;6.90;;;;;;;38.24;31.31;99227.13;4972874;28;19914;-64
2021/06/10 09:17:45;;;;;;;5.77;5.17;;;;;;;39.06;29.99;99227.56;4972631;28;20031;-65
2021/06/10 09:20:19;;;;;;;11.95;8.07;;;;;;;37.69;31.46;99231.00;4973575;28;20126;-65
2021/06/10 09:22:46;;;;;;;10.63;6.55;;;;;;;37.54;32.19;99223.44;4972301;28;20121;-65
2021/06/10 09:25:17;;;;;;;7.55;6.05;;;;;;;37.85;32.63;99222.41;4973480;28;20084;-65
2021/06/10 09:27:57;;;;;;;7.78;6.95;;;;;;;37.31;31.45;99220.59;4983205;28;20173;-65
2021/06/10 09:30:34;;;;;;;8.27;6.38;;;;;;;37.52;32.33;99225.00;4964529;28;20031;-65
2021/06/10 09:33:01;;;;;;;6.97;5.90;;;;;;;36.96;32.38;99215.78;4971043;28;20027;-66
2021/06/10 09:35:29;;;;;;;9.15;8.18;;;;;;;36.64;31.98;99215.09;4965801;28;20031;-64
2021/06/10 09:38:06;;;;;;;8.53;7.73;;;;;;;36.73;32.27;99218.50;4972512;28;20126;-65
2021/06/10 09:40:32;;;;;;;10.70;6.60;;;;;;;37.10;32.21;99218.13;4972770;28;20345;-64
2021/06/10 09:42:58;;;;;;;9.15;6.75;;;;;;;36.21;34.37;99214.06;4978007;28;20114;-70
2021/06/10 09:45:27;;;;;;;8.15;7.32;;;;;;;36.26;34.37;99216.56;4978186;28;20497;-67
2021/06/10 09:47:55;;;;;;;11.93;6.25;;;;;;;36.95;33.47;99208.53;4971889;28;20054;-72
2021/06/10 09:50:33;;;;;;;7.15;5.25;;;;;;;37.96;32.88;99216.13;4973157;28;20374;-65
2021/06/10 09:53:04;;;;;;;9.57;7.30;;;;;;;37.98;33.15;99217.41;4972126;28;20041;-65
2021/06/10 09:55:30;;;;;;;8.90;7.95;;;;;;;36.32;34.72;99205.88;4970122;28;20022;-72
2021/06/10 09:58:04;;;;;;;8.45;7.53;;;;;;;36.16;34.88;99205.91;4968971;28;20022;-71
2021/06/10 10:00:29;;;;;;;8.68;7.78;;;;;;;36.36;35.04;99201.13;4969371;28;20058;-69
2021/06/10 10:02:54;;;;;;;6.68;6.07;;;;;;;36.97;34.23;99185.56;4972452;28;22281;-73
2021/06/10 10:05:22;;;;;;;9.32;6.80;;;;;;;36.43;33.61;99193.66;4972119;28;20125;-67
2021/06/10 10:07:49;;;;;;;7.63;6.75;;;;;;;36.34;34.31;99192.22;4972978;28;20033;-67
2021/06/10 10:10:15;;;;;;;8.40;6.75;;;;;;;35.77;35.15;99192.41;4971761;28;20563;-69
2021/06/10 10:12:44;;;;;;;8.27;7.38;;;;;;;35.75;36.24;99191.16;4973343;28;20157;-72
2021/06/10 10:15:10;;;;;;;10.30;6.97;;;;;;;36.18;35.15;99175.34;4975598;28;20019;-74
2021/06/10 10:17:36;;;;;;;9.10;7.63;;;;;;;36.56;33.43;99168.19;4975485;28;20053;-73
2021/06/10 10:20:04;;;;;;;7.57;6.72;;;;;;;36.82;32.45;99187.28;4976434;28;20035;-70
2021/06/10 10:22:30;;;;;;;9.40;8.40;;;;;;;37.16;32.63;99188.44;4976547;28;20026;-65
2021/06/10 10:24:57;;;;;;;9.40;7.57;;;;;;;36.92;31.82;99181.06;4977940;28;20329;-65
2021/06/10 10:27:23;;;;;;;11.05;8.07;;;;;;;36.80;30.90;99173.53;4961766;28;20184;-66
2021/06/10 10:29:49;;;;;;;8.77;7.10;;;;;;;37.07;31.17;99170.91;4966019;28;20489;-65
2021/06/10 10:32:24;;;;;;;8.85;7.95;;;;;;;35.91;33.47;99177.06;4965051;28;20489;-66
2021/06/10 10:34:49;;;;;;;8.30;7.45;;;;;;;36.33;33.04;99160.41;4965156;28;20187;-66
2021/06/10 10:37:22;;;;;;;8.02;7.22;;;;;;;36.71;32.19;99156.06;4966446;28;20623;-66
2021/06/10 10:39:49;;;;;;;9.77;7.90;;;;;;;36.63;32.32;99168.38;4962565;28;20041;-66
2021/06/10 10:42:36;;;;;;;9.93;8.38;;;;;;;34.19;36.10;99158.88;4960737;28;20169;-65
2021/06/10 10:45:21;;;;;;;9.70;7.95;;;;;;;35.12;35.40;99156.06;4963740;28;20488;-65
2021/06/10 10:48:01;;;;;;;10.82;7.95;;;;;;;35.39;35.30;99161.19;4966073;28;20680;-66
2021/06/10 10:50:34;;;;;;;15.93;8.80;;;;;;;35.78;33.90;99156.63;4961871;28;20023;-66
2021/06/10 10:53:00;;;;;;;7.70;6.85;;;;;;;36.92;34.08;99154.84;4961097;28;20026;-65
2021/06/10 10:55:32;;;;;;;8.13;7.30;;;;;;;37.66;32.75;99149.88;4963866;28;20860;-66
2021/06/10 10:58:20;;;;;;;8.50;7.70;;;;;;;36.68;33.46;99159.63;4965697;28;20029;-66
2021/06/10 11:00:59;;;;;;;7.45;6.68;;;;;;;38.07;33.94;99150.19;4964314;28;20196;-66
2021/06/10 11:03:24;;;;;;;8.40;5.82;;;;;;;38.80;32.11;99150.00;4965970;28;20126;-66
2021/06/10 11:05:51;;;;;;;8.48;7.55;;;;;;;38.90;30.89;99140.06;4965851;28;20122;-66
2021/06/10 11:08:16;;;;;;;7.72;6.93;;;;;;;38.87;31.17;99127.47;4964594;28;20035;-69
2021/06/10 11:10:51;;;;;;;7.80;6.05;;;;;;;39.58;30.77;99132.31;4965272;28;20041;-65
2021/06/10 11:13:20;;;;;;;8.90;8.10;;;;;;;38.17;31.52;99134.56;4960192;28;20115;-67
2021/06/10 11:15:50;;;;;;;11.82;8.30;;;;;;;38.06;31.84;99139.25;4965722;28;20027;-68
2021/06/10 11:18:51;;;;;;;7.13;6.30;;;;;;;38.93;31.17;99134.44;4961428;28;20654;-69
2021/06/10 11:21:41;;;;;;;7.47;6.43;;;;;;;39.23;31.45;99116.59;4962113;28;20086;-68
2021/06/10 11:24:14;;;;;;;8.50;7.03;;;;;;;39.68;29.90;99123.09;4960669;28;20452;-68
2021/06/10 11:26:47;;;;;;;9.27;8.10;;;;;;;39.21;30.87;99113.31;4961520;28;20121;-69